Time;durP1;ratioP1;P1;durP2;ratioP2;P2;SDS_P1;SDS_P2;PMS_P1;PMS_P2;Temp;Humidity;BMP_temperature;BMP_pressure;BME280_temperature;BME280_humidity;BME280_pressure;Samples;Min_cycle;Max_cycle;Signal;HPM_P1;HPM_P2
2022/10/20 00:01:43;;;;;;;;;;;;;;;10.00;63.90;101514.55;1718042;82;25678;-60
2022/10/20 00:04:10;;;;;;;;;;;;;;;9.97;63.74;101507.20;1724085;83;25749;-60
2022/10/20 00:06:36;;;;;;;;;;;;;;;9.91;64.24;101509.02;1715128;83;25962;-60
2022/10/20 00:09:04;;;;;;;;;;;;;;;9.92;63.73;101519.64;1693098;83;25762;-60
2022/10/20 00:11:30;;;;;;;;;;;;;;;9.85;63.97;101512.54;1694922;83;27461;-60
2022/10/20 00:13:57;;;;;;;;;;;;;;;9.81;63.64;101503.47;1708831;83;25790;-62
2022/10/20 00:16:26;;;;;;;;;;;;;;;9.79;63.89;101504.91;1688558;83;25788;-61
2022/10/20 00:18:53;;;;;;;;;;;;;;;9.70;64.25;101517.20;1699488;83;25830;-60
2022/10/20 00:21:22;;;;;;;;;;;;;;;9.70;64.09;101510.95;1711146;83;25725;-60
2022/10/20 00:23:49;;;;;;;;;;;;;;;9.70;63.78;101512.30;1720422;83;26921;-60
2022/10/20 00:26:23;;;;;;;;;;;;;;;9.61;63.96;101511.16;1719917;83;25752;-61
2022/10/20 00:28:50;;;;;;;;;;;;;;;9.58;63.68;101502.47;1664426;84;25739;-60
2022/10/20 00:31:19;;;;;;;;;;;;;;;9.54;64.15;101510.74;1691326;83;25836;-60
2022/10/20 00:33:45;;;;;;;;;;;;;;;9.48;64.50;101514.34;1720146;82;25745;-60
2022/10/20 00:36:14;;;;;;;;;;;;;;;9.42;64.58;101508.93;1717314;83;27658;-60
2022/10/20 00:38:41;;;;;;;;;;;;;;;9.40;64.36;101509.05;1720105;83;25726;-60
2022/10/20 00:41:11;;;;;;;;;;;;;;;9.35;64.72;101507.66;1712590;83;25778;-61
2022/10/20 00:43:50;;;;;;;;;;;;;;;9.33;64.13;101514.96;1693093;83;25845;-60
2022/10/20 00:46:20;;;;;;;;;;;;;;;9.34;63.98;101512.19;1665037;83;25735;-61
2022/10/20 00:48:49;;;;;;;;;;;;;;;9.32;63.81;101515.95;1677652;84;27478;-61
2022/10/20 00:51:19;;;;;;;;;;;;;;;9.27;63.41;101512.26;1685719;84;25774;-61
2022/10/20 00:53:46;;;;;;;;;;;;;;;9.24;62.95;101525.39;1713952;83;25674;-62
2022/10/20 00:56:13;;;;;;;;;;;;;;;9.19;62.57;101527.56;1691352;83;27028;-61
2022/10/20 00:58:40;;;;;;;;;;;;;;;9.19;62.33;101536.08;1715999;83;25500;-61
2022/10/20 01:01:08;;;;;;;;;;;;;;;9.18;61.88;101549.16;1694822;83;27542;-61
2022/10/20 01:03:38;;;;;;;;;;;;;;;9.18;61.46;101553.17;1693625;83;25745;-61
2022/10/20 01:06:05;;;;;;;;;;;;;;;9.15;61.15;101544.83;1712266;83;25775;-61
2022/10/20 01:08:32;;;;;;;;;;;;;;;9.15;60.73;101553.38;1698349;83;26007;-61
2022/10/20 01:11:10;;;;;;;;;;;;;;;9.09;60.71;101553.33;1664653;83;25683;-61
2022/10/20 01:13:56;;;;;;;;;;;;;;;9.04;60.71;101551.46;1719251;82;27515;-61
2022/10/20 01:16:38;;;;;;;;;;;;;;;9.02;60.90;101556.91;1692092;83;25750;-60
2022/10/20 01:19:32;;;;;;;;;;;;;;;9.02;60.90;101556.91;1714150;83;26402;-60
2022/10/20 01:22:14;;;;;;;;;;;;;;;9.03;60.91;101570.71;1691635;83;26673;-60
2022/10/20 01:24:56;;;;;;;;;;;;;;;9.00;60.71;101580.34;1711545;83;25789;-60
2022/10/20 01:27:26;;;;;;;;;;;;;;;9.00;60.71;101574.09;1719455;83;27492;-60
2022/10/20 01:29:59;;;;;;;;;;;;;;;8.95;60.42;101574.41;1706211;83;25634;-60
2022/10/20 01:32:47;;;;;;;;;;;;;;;8.98;60.54;101584.06;1681336;83;25776;-60
2022/10/20 01:35:26;;;;;;;;;;;;;;;8.99;60.04;101597.41;1671388;84;25914;-60
2022/10/20 01:37:56;;;;;;;;;;;;;;;8.99;59.77;101594.72;1714169;83;25681;-61
2022/10/20 01:40:32;;;;;;;;;;;;;;;8.96;59.61;101598.10;1689220;83;27621;-60
2022/10/20 01:43:01;;;;;;;;;;;;;;;8.96;59.64;101596.27;1664495;84;25779;-60
2022/10/20 01:45:30;;;;;;;;;;;;;;;8.87;58.85;101599.11;1719798;82;25716;-59
2022/10/20 01:47:58;;;;;;;;;;;;;;;8.84;58.58;101609.16;1721424;83;25961;-60
2022/10/20 01:50:25;;;;;;;;;;;;;;;8.79;58.80;101608.62;1699858;83;26134;-60
2022/10/20 01:52:59;;;;;;;;;;;;;;;8.76;58.68;101615.07;1692417;84;27491;-60
2022/10/20 01:55:26;;;;;;;;;;;;;;;8.69;58.39;101622.66;1714535;83;25758;-60
2022/10/20 01:58:02;;;;;;;;;;;;;;;8.65;58.59;101617.61;1692485;84;25937;-61
2022/10/20 02:00:28;;;;;;;;;;;;;;;8.61;58.64;101616.95;1648034;83;25841;-60
2022/10/20 02:03:23;;;;;;;;;;;;;;;8.62;58.72;101628.06;1664654;86;25732;-61
2022/10/20 02:05:58;;;;;;;;;;;;;;;8.59;58.78;101629.14;1675488;83;27417;-60
2022/10/20 02:08:31;;;;;;;;;;;;;;;8.54;58.87;101631.73;1711992;83;25781;-60
2022/10/20 02:11:00;;;;;;;;;;;;;;;8.50;59.03;101640.94;1650437;84;25671;-60
2022/10/20 02:13:28;;;;;;;;;;;;;;;8.53;59.05;101648.79;1668180;83;25775;-60
2022/10/20 02:15:59;;;;;;;;;;;;;;;8.51;59.03;101656.07;1684093;83;25958;-60
2022/10/20 02:18:35;;;;;;;;;;;;;;;8.53;59.09;101661.70;1692721;84;27661;-59
2022/10/20 02:21:03;;;;;;;;;;;;;;;8.52;58.87;101656.45;1703331;83;25738;-59
2022/10/20 02:23:32;;;;;;;;;;;;;;;8.49;58.85;101664.23;1697032;83;25789;-60
2022/10/20 02:25:59;;;;;;;;;;;;;;;8.46;58.76;101668.41;1698869;83;28006;-60
2022/10/20 02:28:27;;;;;;;;;;;;;;;8.36;58.99;101674.86;1682664;83;26145;-60
2022/10/20 02:30:55;;;;;;;;;;;;;;;8.32;59.12;101677.34;1705471;83;27545;-60
2022/10/20 02:33:22;;;;;;;;;;;;;;;8.26;59.20;101676.41;1710222;83;25744;-59
2022/10/20 02:35:53;;;;;;;;;;;;;;;8.23;59.39;101673.92;1718400;83;25773;-60
2022/10/20 02:38:19;;;;;;;;;;;;;;;8.18;59.74;101682.25;1688380;83;25843;-60
2022/10/20 02:40:46;;;;;;;;;;;;;;;8.08;60.09;101681.11;1668385;83;25501;-60
2022/10/20 02:43:12;;;;;;;;;;;;;;;8.05;60.16;101677.31;1699123;83;27630;-60
2022/10/20 02:45:39;;;;;;;;;;;;;;;8.06;59.98;101682.56;1720079;83;25684;-60
2022/10/20 02:48:08;;;;;;;;;;;;;;;8.10;60.09;101681.88;1707551;83;25708;-59
2022/10/20 02:50:35;;;;;;;;;;;;;;;8.09;59.76;101683.72;1705202;83;25854;-60
2022/10/20 02:53:03;;;;;;;;;;;;;;;8.07;59.61;101691.48;1703669;83;25791;-60
2022/10/20 02:55:29;;;;;;;;;;;;;;;8.05;59.63;101690.70;1676761;83;27709;-60
2022/10/20 02:57:56;;;;;;;;;;;;;;;8.04;59.59;101697.87;1684853;84;26212;-60
2022/10/20 03:00:22;;;;;;;;;;;;;;;8.05;59.70;101700.09;1689178;83;25766;-59
2022/10/20 03:02:50;;;;;;;;;;;;;;;8.04;59.93;101696.53;1680203;84;25831;-59
2022/10/20 03:05:17;;;;;;;;;;;;;;;8.03;60.24;101699.31;1705800;83;25695;-60
2022/10/20 03:07:44;;;;;;;;;;;;;;;8.05;60.56;101705.45;1721360;83;27491;-60
2022/10/20 03:10:10;;;;;;;;;;;;;;;8.02;60.38;101706.97;1700077;83;25646;-60
2022/10/20 03:12:36;;;;;;;;;;;;;;;7.99;60.54;101708.88;1713023;83;25910;-60
2022/10/20 03:15:04;;;;;;;;;;;;;;;8.04;60.44;101709.08;1688876;83;25700;-60
2022/10/20 03:17:31;;;;;;;;;;;;;;;8.02;60.46;101721.25;1700981;83;25714;-60
2022/10/20 03:19:57;;;;;;;;;;;;;;;7.96;60.17;101723.83;1700796;83;27388;-60
2022/10/20 03:22:23;;;;;;;;;;;;;;;7.90;60.14;101723.34;1691674;83;25738;-60
2022/10/20 03:24:49;;;;;;;;;;;;;;;7.90;60.00;101710.79;1703417;83;25792;-60
2022/10/20 03:27:16;;;;;;;;;;;;;;;7.90;59.55;101710.79;1664492;86;26361;-60
2022/10/20 03:29:42;;;;;;;;;;;;;;;7.91;59.57;101711.67;1682017;83;25643;-60
2022/10/20 03:32:09;;;;;;;;;;;;;;;7.95;59.25;101703.34;1720354;83;27557;-61
2022/10/20 03:34:35;;;;;;;;;;;;;;;7.97;59.22;101709.94;1684707;83;25724;-60
2022/10/20 03:37:01;;;;;;;;;;;;;;;8.01;58.89;101714.63;1709585;83;25499;-60
2022/10/20 03:39:28;;;;;;;;;;;;;;;8.01;58.69;101708.80;1700151;83;25880;-60
2022/10/20 03:41:56;;;;;;;;;;;;;;;8.05;58.54;101712.15;1717584;83;25822;-60
2022/10/20 03:44:23;;;;;;;;;;;;;;;8.02;58.35;101718.56;1693278;83;27491;-60
2022/10/20 03:46:50;;;;;;;;;;;;;;;7.99;58.10;101712.90;1706266;83;25731;-60
2022/10/20 03:49:16;;;;;;;;;;;;;;;7.98;58.04;101725.06;1718528;83;25629;-60
2022/10/20 03:51:43;;;;;;;;;;;;;;;7.95;58.20;101722.56;1681152;85;25999;-60
2022/10/20 03:54:09;;;;;;;;;;;;;;;7.93;58.13;101725.84;1698089;83;25800;-60
2022/10/20 03:56:35;;;;;;;;;;;;;;;7.91;57.84;101726.41;1666480;84;27495;-60
2022/10/20 03:59:02;;;;;;;;;;;;;;;7.90;57.79;101734.91;1691721;83;25810;-60
2022/10/20 04:01:30;;;;;;;;;;;;;;;7.86;57.36;101736.53;1714496;83;25684;-60
2022/10/20 04:03:57;;;;;;;;;;;;;;;7.77;57.46;101737.97;1710897;83;25826;-60
2022/10/20 04:06:24;;;;;;;;;;;;;;;7.74;57.58;101738.15;1710454;83;25824;-60
2022/10/20 04:08:50;;;;;;;;;;;;;;;7.71;57.70;101741.04;1722175;82;28265;-60
2022/10/20 04:11:16;;;;;;;;;;;;;;;7.68;57.81;101744.73;1693676;83;25769;-60
2022/10/20 04:13:43;;;;;;;;;;;;;;;7.66;57.85;101744.84;1695436;83;25750;-60
2022/10/20 04:16:10;;;;;;;;;;;;;;;7.66;58.00;101742.66;1683412;83;25858;-60
2022/10/20 04:18:37;;;;;;;;;;;;;;;7.64;58.10;101737.37;1670440;83;25718;-60
2022/10/20 04:21:04;;;;;;;;;;;;;;;7.60;58.12;101734.97;1679880;83;27500;-60
2022/10/20 04:23:30;;;;;;;;;;;;;;;7.57;58.19;101736.03;1714145;83;25697;-61
2022/10/20 04:25:57;;;;;;;;;;;;;;;7.58;58.12;101732.86;1709671;83;25756;-60
2022/10/20 04:28:23;;;;;;;;;;;;;;;7.58;58.16;101738.21;1689244;83;25796;-60
2022/10/20 04:30:49;;;;;;;;;;;;;;;7.55;58.26;101741.95;1691905;83;25804;-60
2022/10/20 04:33:16;;;;;;;;;;;;;;;7.56;58.49;101739.66;1736706;82;27482;-60
2022/10/20 04:35:42;;;;;;;;;;;;;;;7.56;58.71;101745.50;1722225;83;25726;-60
2022/10/20 04:38:09;;;;;;;;;;;;;;;7.55;58.92;101753.15;1719404;83;25792;-61
2022/10/20 04:40:35;;;;;;;;;;;;;;;7.52;58.85;101748.84;1700178;83;26651;-60
2022/10/20 04:43:02;;;;;;;;;;;;;;;7.41;59.38;101749.47;1723391;83;25706;-61
2022/10/20 04:45:28;;;;;;;;;;;;;;;7.34;59.52;101761.04;1722226;83;28182;-60
2022/10/20 04:47:55;;;;;;;;;;;;;;;7.31;59.99;101762.55;1672387;83;27247;-60
2022/10/20 04:50:22;;;;;;;;;;;;;;;7.31;60.01;101767.02;1672007;84;25771;-60
2022/10/20 04:52:50;;;;;;;;;;;;;;;7.25;60.33;101759.36;1697577;83;25816;-61
2022/10/20 04:55:17;;;;;;;;;;;;;;;7.27;60.44;101759.66;1723278;83;25760;-60
2022/10/20 04:57:44;;;;;;;;;;;;;;;7.30;60.39;101771.52;1718721;83;27546;-60
2022/10/20 05:00:12;;;;;;;;;;;;;;;7.26;61.05;101777.15;1718220;83;27337;-61
2022/10/20 05:02:38;;;;;;;;;;;;;;;7.23;60.68;101784.00;1724998;82;25838;-61
2022/10/20 05:05:06;;;;;;;;;;;;;;;7.19;61.59;101785.55;1673099;83;25830;-61
2022/10/20 05:07:32;;;;;;;;;;;;;;;7.23;61.12;101789.36;1675556;83;25719;-60
2022/10/20 05:09:59;;;;;;;;;;;;;;;7.25;61.19;101799.51;1714068;82;27093;-60
2022/10/20 05:12:26;;;;;;;;;;;;;;;7.19;61.44;101797.59;1734972;82;25872;-62
2022/10/20 05:14:53;;;;;;;;;;;;;;;7.20;61.16;101802.45;1686423;82;25537;-60
2022/10/20 05:17:20;;;;;;;;;;;;;;;7.22;61.28;101804.57;1699002;83;25816;-60
2022/10/20 05:19:46;;;;;;;;;;;;;;;7.16;61.47;101816.98;1730215;83;25921;-60
2022/10/20 05:22:13;;;;;;;;;;;;;;;7.13;61.23;101823.83;1723428;82;27466;-59
2022/10/20 05:24:39;;;;;;;;;;;;;;;7.09;61.34;101827.62;1704960;82;25675;-59
2022/10/20 05:27:05;;;;;;;;;;;;;;;7.08;61.40;101833.95;1722380;82;25815;-61
2022/10/20 05:29:32;;;;;;;;;;;;;;;7.03;61.46;101840.90;1688234;82;25795;-60
2022/10/20 05:31:58;;;;;;;;;;;;;;;7.03;60.60;101832.38;1709501;82;25691;-60
2022/10/20 05:34:25;;;;;;;;;;;;;;;7.03;60.39;101832.38;1737085;82;27521;-61
2022/10/20 05:36:54;;;;;;;;;;;;;;;7.03;59.86;101843.08;1719118;82;25963;-61
2022/10/20 05:39:21;;;;;;;;;;;;;;;7.03;59.20;101851.11;1693717;82;25734;-62
2022/10/20 05:41:48;;;;;;;;;;;;;;;6.99;59.07;101849.55;1712076;82;25819;-60
2022/10/20 05:44:14;;;;;;;;;;;;;;;6.99;59.13;101854.89;1737388;82;25812;-62
2022/10/20 05:46:41;;;;;;;;;;;;;;;6.95;59.42;101859.20;1735860;82;27478;-61
2022/10/20 05:49:14;;;;;;;;;;;;;;;6.91;59.54;101865.66;1714571;82;25739;-61
2022/10/20 05:51:41;;;;;;;;;;;;;;;6.94;59.33;101871.69;1701432;82;26273;-61
2022/10/20 05:54:09;;;;;;;;;;;;;;;7.05;58.76;101869.74;1707545;83;25871;-61
2022/10/20 05:56:36;;;;;;;;;;;;;;;7.17;58.14;101871.73;1720031;82;26639;-61
2022/10/20 05:59:03;;;;;;;;;;;;;;;7.17;57.71;101875.75;1725191;82;27544;-60
2022/10/20 06:01:40;;;;;;;;;;;;;;;7.15;56.74;101876.30;1733403;82;25753;-61
2022/10/20 06:04:10;;;;;;;;;;;;;;;7.12;56.80;101876.96;1711639;82;25817;-59
2022/10/20 06:06:37;;;;;;;;;;;;;;;7.11;56.37;101874.77;1726058;82;25881;-60
2022/10/20 06:09:06;;;;;;;;;;;;;;;7.08;56.47;101874.09;1724724;82;25724;-61
2022/10/20 06:11:33;;;;;;;;;;;;;;;7.08;56.72;101882.96;1709825;82;28279;-60
2022/10/20 06:13:59;;;;;;;;;;;;;;;7.05;56.55;101884.00;1708528;82;25734;-60
2022/10/20 06:16:26;;;;;;;;;;;;;;;7.03;56.79;101881.03;1708052;84;25721;-60
2022/10/20 06:18:53;;;;;;;;;;;;;;;7.05;56.67;101896.50;1707476;83;25789;-61
2022/10/20 06:21:22;;;;;;;;;;;;;;;7.07;56.65;101893.27;1707799;83;25702;-60
2022/10/20 06:23:50;;;;;;;;;;;;;;;7.11;56.25;101898.86;1707729;83;28949;-60
2022/10/20 06:26:19;;;;;;;;;;;;;;;7.15;56.21;101903.06;1707664;83;25759;-60
2022/10/20 06:28:48;;;;;;;;;;;;;;;7.11;56.18;101899.31;1706116;84;25814;-61
2022/10/20 06:31:21;;;;;;;;;;;;;;;7.10;55.95;101911.84;1707956;84;26608;-61
2022/10/20 06:33:48;;;;;;;;;;;;;;;7.14;56.33;101909.37;1707634;83;25701;-60
2022/10/20 06:36:16;;;;;;;;;;;;;;;7.13;56.17;101913.48;1707919;83;27464;-61
2022/10/20 06:38:43;;;;;;;;;;;;;;;7.13;56.26;101912.14;1707852;84;25793;-61
2022/10/20 06:41:12;;;;;;;;;;;;;;;7.20;56.40;101918.41;1700010;84;25819;-61
2022/10/20 06:43:39;;;;;;;;;;;;;;;7.19;56.11;101918.02;1697971;84;25753;-61
2022/10/20 06:46:09;;;;;;;;;;;;;;;7.27;56.34;101918.05;1697884;84;25702;-61
2022/10/20 06:48:36;;;;;;;;;;;;;;;7.35;56.26;101908.63;1697768;84;27505;-60
2022/10/20 06:51:05;;;;;;;;;;;;;;;7.41;55.99;101915.45;1704304;83;26164;-60
2022/10/20 06:53:34;;;;;;;;;;;;;;;7.43;55.97;101926.94;1700875;84;25745;-61
2022/10/20 06:56:05;;;;;;;;;;;;;;;7.46;55.59;101923.22;1700722;84;25880;-60
2022/10/20 06:58:33;;;;;;;;;;;;;;;7.55;55.45;101925.86;1700704;84;25709;-62
2022/10/20 07:01:01;;;;;;;;;;;;;;;7.63;55.43;101922.27;1700973;84;27263;-61
2022/10/20 07:03:29;;;;;;;;;;;;;;;7.66;55.41;101946.20;1700396;84;25744;-61
2022/10/20 07:05:56;;;;;;;;;;;;;;;7.71;55.40;101940.09;1701039;84;25721;-61
2022/10/20 07:08:23;;;;;;;;;;;;;;;7.72;55.40;101945.84;1697300;83;26593;-61
2022/10/20 07:11:05;;;;;;;;;;;;;;;7.78;55.49;101935.25;1695089;83;25902;-61
2022/10/20 07:13:32;;;;;;;;;;;;;;;7.88;55.53;101944.48;1695150;84;28242;-61
2022/10/20 07:15:59;;;;;;;;;;;;;;;8.04;55.74;101940.39;1695109;84;25748;-60
2022/10/20 07:18:27;;;;;;;;;;;;;;;8.15;55.63;101939.28;1695232;84;25821;-62
2022/10/20 07:21:02;;;;;;;;;;;;;;;8.20;55.32;101955.59;1695149;84;26379;-60
2022/10/20 07:23:30;;;;;;;;;;;;;;;8.17;55.27;101938.34;1695188;84;25920;-61
2022/10/20 07:26:02;;;;;;;;;;;;;;;8.24;55.07;101933.87;1695071;84;27565;-60
2022/10/20 07:28:29;;;;;;;;;;;;;;;8.38;54.18;101922.28;1694793;84;27224;-60
2022/10/20 07:30:56;;;;;;;;;;;;;;;8.48;53.22;101942.74;1695131;84;25737;-61
2022/10/20 07:33:22;;;;;;;;;;;;;;;8.54;51.93;101941.02;1695427;84;25880;-61
2022/10/20 07:35:49;;;;;;;;;;;;;;;8.64;51.31;101934.63;1699903;84;25774;-61
2022/10/20 07:38:15;;;;;;;;;;;;;;;8.73;51.18;101930.48;1695464;84;28190;-62
2022/10/20 07:40:41;;;;;;;;;;;;;;;8.79;50.58;101935.46;1698045;84;25713;-61
2022/10/20 07:43:08;;;;;;;;;;;;;;;8.78;50.54;101921.69;1699764;84;25797;-61
2022/10/20 07:45:35;;;;;;;;;;;;;;;8.87;51.22;101937.22;1699917;84;25884;-61
2022/10/20 07:48:03;;;;;;;;;;;;;;;9.01;51.08;101926.92;1695384;83;25822;-61
2022/10/20 07:50:29;;;;;;;;;;;;;;;9.06;49.80;101932.88;1691233;84;27464;-62
2022/10/20 07:52:56;;;;;;;;;;;;;;;9.14;49.66;101929.71;1698584;84;27260;-61
2022/10/20 07:55:23;;;;;;;;;;;;;;;9.28;48.14;101920.73;1699946;84;25774;-61
2022/10/20 07:57:50;;;;;;;;;;;;;;;9.39;48.19;101921.41;1698073;84;25798;-62
2022/10/20 08:00:16;;;;;;;;;;;;;;;9.48;47.32;101913.20;1672743;84;26042;-61
2022/10/20 08:02:44;;;;;;;;;;;;;;;9.59;46.81;101911.17;1671659;85;27492;-62
2022/10/20 08:05:12;;;;;;;;;;;;;;;9.71;45.35;101915.72;1672384;84;25885;-61
2022/10/20 08:07:38;;;;;;;;;;;;;;;9.78;45.01;101914.83;1699728;83;25786;-61
2022/10/20 08:10:06;;;;;;;;;;;;;;;9.85;44.74;101904.04;1707617;84;27935;-61
2022/10/20 08:12:33;;;;;;;;;;;;;;;9.95;44.20;101912.36;1707746;83;25731;-61
2022/10/20 08:14:59;;;;;;;;;;;;;;;10.08;44.17;101915.08;1707552;83;29612;-60
2022/10/20 08:17:26;;;;;;;;;;;;;;;10.20;43.30;101915.55;1707635;84;25672;-61
2022/10/20 08:19:52;;;;;;;;;;;;;;;10.26;43.22;101919.19;1707775;83;25712;-61
2022/10/20 08:22:19;;;;;;;;;;;;;;;10.39;41.45;101910.28;1707344;83;25848;-61
2022/10/20 08:24:45;;;;;;;;;;;;;;;10.46;41.22;101916.95;1707645;84;25825;-61
2022/10/20 08:27:12;;;;;;;;;;;;;;;10.53;40.54;101930.38;1707652;83;26743;-61
2022/10/20 08:29:39;;;;;;;;;;;;;;;10.76;41.70;101925.19;1707549;84;25770;-61
2022/10/20 08:32:06;;;;;;;;;;;;;;;10.98;40.17;101920.97;1707660;84;25723;-61
2022/10/20 08:34:32;;;;;;;;;;;;;;;11.10;39.00;101934.87;1707643;83;26573;-61
2022/10/20 08:36:59;;;;;;;;;;;;;;;11.16;39.65;101937.61;1704630;83;25495;-62
2022/10/20 08:39:25;;;;;;;;;;;;;;;11.20;39.23;101930.55;1700925;84;28342;-61
2022/10/20 08:41:53;;;;;;;;;;;;;;;11.38;39.09;101935.55;1707579;83;25806;-61
2022/10/20 08:44:26;;;;;;;;;;;;;;;11.47;38.83;101934.03;1707612;83;25818;-61
2022/10/20 08:46:53;;;;;;;;;;;;;;;11.63;38.37;101947.20;1708064;81;25873;-60
2022/10/20 08:49:22;;;;;;;;;;;;;;;11.76;37.14;101957.45;1707592;84;25741;-60
2022/10/20 08:51:50;;;;;;;;;;;;;;;11.84;36.92;101944.73;1699673;83;27577;-61
2022/10/20 08:54:17;;;;;;;;;;;;;;;11.98;36.58;101949.98;1699287;84;25769;-61
2022/10/20 08:56:45;;;;;;;;;;;;;;;12.67;35.22;101945.13;1699657;84;25801;-61
2022/10/20 08:59:35;;;;;;;;;;;;;;;13.53;35.17;101950.49;1699375;84;25838;-60
2022/10/20 09:02:04;;;;;;;;;;;;;;;14.51;32.23;101942.68;1699705;83;25775;-60
2022/10/20 09:04:40;;;;;;;;;;;;;;;15.07;32.20;101943.23;1699272;84;27522;-60
2022/10/20 09:07:27;;;;;;;;;;;;;;;15.38;31.63;101939.61;1698668;84;25812;-61
2022/10/20 09:10:16;;;;;;;;;;;;;;;16.07;30.22;101937.86;1694230;83;25516;-60
2022/10/20 09:12:45;;;;;;;;;;;;;;;16.38;30.17;101937.66;1692986;83;25907;-60
2022/10/20 09:15:14;;;;;;;;;;;;;;;16.82;28.39;101940.68;1693944;84;25742;-61
2022/10/20 09:17:43;;;;;;;;;;;;;;;16.95;29.46;101936.30;1693579;84;27546;-61
2022/10/20 09:20:15;;;;;;;;;;;;;;;17.47;27.95;101928.09;1693493;84;26090;-61
2022/10/20 09:22:42;;;;;;;;;;;;;;;17.74;29.17;101945.37;1693904;84;25709;-62
2022/10/20 09:25:17;;;;;;;;;;;;;;;18.21;28.47;101942.39;1693608;84;25787;-62
2022/10/20 09:27:44;;;;;;;;;;;;;;;18.52;25.97;101946.04;1693972;84;25776;-61
2022/10/20 09:30:17;;;;;;;;;;;;;;;18.75;26.31;101944.99;1697900;83;27465;-62
2022/10/20 09:32:44;;;;;;;;;;;;;;;18.61;25.78;101940.12;1729998;82;25959;-61
2022/10/20 09:35:28;;;;;;;;;;;;;;;18.76;25.93;101954.88;1729893;83;25785;-62
2022/10/20 09:38:11;;;;;;;;;;;;;;;18.82;26.51;101949.30;1701449;83;26778;-61
2022/10/20 09:40:42;;;;;;;;;;;;;;;19.25;25.31;101932.95;1692868;84;25802;-61
2022/10/20 09:43:12;;;;;;;;;;;;;;;19.42;25.44;101939.83;1689075;83;27610;-61
2022/10/20 09:45:48;;;;;;;;;;;;;;;19.68;25.61;101933.73;1691712;83;25710;-61
2022/10/20 09:48:18;;;;;;;;;;;;;;;19.80;23.98;101945.21;1691794;84;25460;-61
2022/10/20 09:50:49;;;;;;;;;;;;;;;19.82;24.31;101939.58;1693841;83;25830;-61
2022/10/20 09:53:22;;;;;;;;;;;;;;;20.27;24.42;101944.20;1696039;84;25745;-60
2022/10/20 09:55:50;;;;;;;;;;;;;;;20.54;23.18;101935.28;1695021;84;27490;-61
2022/10/20 09:58:28;;;;;;;;;;;;;;;20.50;23.99;101938.88;1695538;84;26044;-61
2022/10/20 10:00:59;;;;;;;;;;;;;;;20.50;23.61;101930.69;1694688;84;25750;-61
2022/10/20 10:03:26;;;;;;;;;;;;;;;20.16;23.67;101939.45;1695204;83;25833;-60
2022/10/20 10:05:57;;;;;;;;;;;;;;;20.46;22.41;101915.14;1685138;83;26041;-61
2022/10/20 10:08:30;;;;;;;;;;;;;;;20.56;23.92;101936.84;1673854;84;27674;-62
2022/10/20 10:11:02;;;;;;;;;;;;;;;20.81;23.57;101940.91;1694773;82;25650;-61
2022/10/20 10:13:31;;;;;;;;;;;;;;;21.32;22.76;101936.91;1737241;82;25743;-61
2022/10/20 10:16:01;;;;;;;;;;;;;;;21.28;22.54;101924.64;1737404;81;25763;-61
2022/10/20 10:18:28;;;;;;;;;;;;;;;21.30;23.11;101928.03;1737196;82;25716;-61
2022/10/20 10:21:00;;;;;;;;;;;;;;;21.70;21.14;101932.96;1736978;82;27442;-62
2022/10/20 10:23:29;;;;;;;;;;;;;;;21.58;21.62;101925.69;1718143;82;25965;-61
2022/10/20 10:25:56;;;;;;;;;;;;;;;21.93;21.03;101926.61;1704786;82;25801;-62
2022/10/20 10:28:36;;;;;;;;;;;;;;;21.94;22.05;101929.69;1694895;83;26068;-61
2022/10/20 10:31:20;;;;;;;;;;;;;;;22.08;21.21;101943.11;1700006;82;25734;-61
2022/10/20 10:33:48;;;;;;;;;;;;;;;21.36;21.25;101932.27;1711122;82;27722;-60
2022/10/20 10:36:24;;;;;;;;;;;;;;;21.29;21.35;101924.45;1727307;82;25688;-61
2022/10/20 10:38:50;;;;;;;;;;;;;;;21.11;21.39;101946.62;1708657;82;25750;-61
2022/10/20 10:41:37;;;;;;;;;;;;;;;21.62;21.56;101937.97;1709249;82;26171;-62
2022/10/20 10:44:07;;;;;;;;;;;;;;;21.93;21.52;101934.33;1700711;84;25502;-61
2022/10/20 10:46:36;;;;;;;;;;;;;;;22.19;20.75;101938.03;1713752;82;27460;-61
2022/10/20 10:49:18;;;;;;;;;;;;;;;22.43;19.85;101937.52;1733884;82;25696;-61
2022/10/20 10:51:58;;;;;;;;;;;;;;;22.46;20.69;101937.66;1718017;82;25741;-61
2022/10/20 10:55:03;;;;;;;;;;;;;;;22.95;21.42;101928.02;1732135;82;25726;-61
2022/10/20 10:57:33;;;;;;;;;;;;;;;23.34;18.83;101928.23;1631574;86;25796;-61
2022/10/20 11:00:03;;;;;;;;;;;;;;;23.16;20.16;101931.34;1628450;87;28594;-61
2022/10/20 11:03:02;;;;;;;;;;;;;;;22.79;19.23;101935.91;1626317;84;25812;-60
2022/10/20 11:05:38;;;;;;;;;;;;;;;22.79;20.17;101935.41;1697543;82;26420;-62
2022/10/20 11:08:23;;;;;;;;;;;;;;;22.58;19.72;101938.03;1662185;85;25942;-60
2022/10/20 11:10:58;;;;;;;;;;;;;;;22.62;19.54;101929.78;1687050;83;25691;-61
2022/10/20 11:13:31;;;;;;;;;;;;;;;22.16;19.45;101933.44;1693100;83;27503;-61
2022/10/20 11:16:24;;;;;;;;;;;;;;;21.96;20.83;101933.11;1671570;85;25667;-61
2022/10/20 11:18:57;;;;;;;;;;;;;;;22.05;20.31;101934.74;1694779;83;26002;-61
2022/10/20 11:21:49;;;;;;;;;;;;;;;21.75;20.70;101925.03;1703482;83;26521;-61
2022/10/20 11:24:40;;;;;;;;;;;;;;;21.29;20.89;101921.72;1696905;83;26479;-61
2022/10/20 11:27:19;;;;;;;;;;;;;;;21.09;21.11;101933.09;1683246;83;29695;-62
2022/10/20 11:30:15;;;;;;;;;;;;;;;20.90;21.27;101915.23;1697602;83;25939;-60
2022/10/20 11:32:44;;;;;;;;;;;;;;;20.03;21.76;101930.06;1671707;85;25743;-60
2022/10/20 11:35:23;;;;;;;;;;;;;;;19.64;22.05;101927.42;1692043;83;25815;-60
2022/10/20 11:37:57;;;;;;;;;;;;;;;19.53;22.54;101916.32;1688296;83;25762;-60
2022/10/20 11:40:31;;;;;;;;;;;;;;;19.60;22.29;101906.44;1694180;83;27572;-61
2022/10/20 11:43:02;;;;;;;;;;;;;;;19.40;22.52;101924.99;1710103;83;25808;-61
2022/10/20 11:45:35;;;;;;;;;;;;;;;19.21;22.55;101925.62;1697467;83;25721;-60
2022/10/20 11:48:23;;;;;;;;;;;;;;;18.84;22.84;101921.86;1713202;82;26559;-60
2022/10/20 11:51:19;;;;;;;;;;;;;;;18.40;22.95;101925.52;1671612;83;25833;-60
2022/10/20 11:54:17;;;;;;;;;;;;;;;18.29;23.64;101920.66;1699833;84;27761;-62
2022/10/20 11:57:04;;;;;;;;;;;;;;;18.06;24.03;101922.20;1699716;84;25730;-61
2022/10/20 11:59:49;;;;;;;;;;;;;;;17.93;23.89;101913.05;1698937;83;25791;-62
2022/10/20 12:02:34;;;;;;;;;;;;;;;17.64;24.38;101920.94;1687949;83;26215;-62
2022/10/20 12:05:38;;;;;;;;;;;;;;;17.56;24.39;101917.65;1598117;88;25835;-62
2022/10/20 12:08:11;;;;;;;;;;;;;;;17.67;23.99;101929.64;1768253;81;27464;-62
2022/10/20 12:11:07;;;;;;;;;;;;;;;17.51;24.15;101920.83;1764561;80;25784;-63
2022/10/20 12:13:57;;;;;;;;;;;;;;;17.27;24.24;101932.77;1745742;81;25785;-62
2022/10/20 12:16:53;;;;;;;;;;;;;;;17.27;24.26;101920.53;1749082;80;25827;-62
2022/10/20 12:19:25;;;;;;;;;;;;;;;17.40;24.54;101974.08;1764105;81;25751;-61
2022/10/20 12:22:01;;;;;;;;;;;;;;;17.44;24.38;101934.67;1759752;81;27501;-61
2022/10/20 12:24:36;;;;;;;;;;;;;;;17.11;24.72;101938.37;1752441;81;26617;-63
2022/10/20 12:27:12;;;;;;;;;;;;;;;17.36;24.79;101926.42;1773014;81;25680;-61
2022/10/20 12:29:45;;;;;;;;;;;;;;;17.55;24.45;101948.58;1774064;81;25812;-61
2022/10/20 12:32:43;;;;;;;;;;;;;;;18.15;23.57;101936.23;1773943;81;25782;-61
2022/10/20 12:35:13;;;;;;;;;;;;;;;18.73;23.45;101932.02;1744344;80;27487;-62
2022/10/20 12:37:41;;;;;;;;;;;;;;;19.17;22.82;101934.30;1749461;81;25805;-61
2022/10/20 12:40:14;;;;;;;;;;;;;;;19.57;22.84;101928.63;1755307;81;25735;-62
2022/10/20 12:42:49;;;;;;;;;;;;;;;20.16;22.77;101921.70;1757581;81;26037;-62
2022/10/20 12:45:19;;;;;;;;;;;;;;;20.54;22.10;101932.05;1762897;81;26613;-61
2022/10/20 12:47:55;;;;;;;;;;;;;;;20.88;20.96;101943.80;1762653;81;27564;-61
2022/10/20 12:50:37;;;;;;;;;;;;;;;21.20;21.42;101937.31;1752485;81;25764;-61
2022/10/20 12:53:16;;;;;;;;;;;;;;;21.73;20.90;101951.24;1749674;81;25798;-61
2022/10/20 12:55:46;;;;;;;;;;;;;;;22.09;20.61;101949.80;1753960;81;25802;-61
2022/10/20 12:58:22;;;;;;;;;;;;;;;22.46;19.38;101948.62;1743630;81;26429;-62
2022/10/20 13:00:52;;;;;;;;;;;;;;;22.39;19.47;101952.59;1743430;81;27475;-60
2022/10/20 13:03:45;;;;;;;;;;;;;;;22.82;20.12;101952.84;1753412;81;25727;-61